createdAt,value
2017-03-26T00:00:07.091Z,19.6
2017-03-26T00:01:17.051Z,19.6
2017-03-26T00:02:26.703Z,19.5
2017-03-26T00:03:36.972Z,19.6
2017-03-26T00:04:46.935Z,19.5
2017-03-26T00:05:57.147Z,19.6
2017-03-26T00:07:07.105Z,19.79
2017-03-26T00:08:17.370Z,19.6
2017-03-26T00:09:27.337Z,19.79
2017-03-26T00:10:37.529Z,19.79
2017-03-26T00:11:47.436Z,19.7
2017-03-26T00:12:57.702Z,20.08
2017-03-26T00:14:07.667Z,19.79
2017-03-26T00:15:17.955Z,19.79
2017-03-26T00:16:27.925Z,19.89
2017-03-26T00:17:38.511Z,19.98
2017-03-26T00:18:48.158Z,19.79
2017-03-26T00:19:58.124Z,20.08
2017-03-26T00:21:08.394Z,19.6
2017-03-26T00:22:18.667Z,19.7
2017-03-26T00:23:29.196Z,20.08
2017-03-26T00:24:38.859Z,19.7
2017-03-26T00:25:48.819Z,19.7
2017-03-26T00:26:58.778Z,20.17
2017-03-26T00:28:08.755Z,20.08
2017-03-26T00:29:18.965Z,20.17
2017-03-26T00:30:28.942Z,20.08
2017-03-26T00:31:39.223Z,20.08
2017-03-26T00:32:48.874Z,20.17
2017-03-26T00:33:58.842Z,20.08
2017-03-26T00:35:08.747Z,20.17
2017-03-26T00:36:18.713Z,20.17
2017-03-26T00:37:28.975Z,20.08
2017-03-26T00:38:39.251Z,20.08
2017-03-26T00:39:48.912Z,20.08
2017-03-26T00:40:59.129Z,20.27
2017-03-26T00:42:09.088Z,20.17
2017-03-26T00:43:18.754Z,20.17
2017-03-26T00:44:29.085Z,20.27
2017-03-26T00:45:39.057Z,20.37
2017-03-26T00:46:49.322Z,20.08
2017-03-26T00:47:59.280Z,20.27
2017-03-26T00:49:09.573Z,20.47
2017-03-26T00:50:19.858Z,20.17
2017-03-26T00:51:30.125Z,20.17
2017-03-26T00:52:40.381Z,20.17
2017-03-26T00:53:49.733Z,20.47
2017-03-26T00:54:59.695Z,20.27
2017-03-26T00:56:09.972Z,20.47
2017-03-26T00:57:20.243Z,20.27
2017-03-26T00:58:30.776Z,20.47
2017-03-26T00:59:41.051Z,20.27
2017-03-26T01:00:50.701Z,20.37
2017-03-26T01:02:00.693Z,20.47
2017-03-26T01:03:10.649Z,20.47
2017-03-26T01:04:20.904Z,20.37
2017-03-26T01:05:30.870Z,20.37
2017-03-26T01:06:40.837Z,20.56
2017-03-26T01:07:51.107Z,20.47
2017-03-26T01:09:01.392Z,20.37
2017-03-26T01:10:11.310Z,20.37
2017-03-26T01:11:20.954Z,20.37
2017-03-26T01:12:30.616Z,20.37
2017-03-26T01:13:40.586Z,20.37
2017-03-26T01:14:50.906Z,20.37
2017-03-26T01:16:01.119Z,20.37
2017-03-26T01:17:11.078Z,20.27
2017-03-26T01:18:21.399Z,20.37
2017-03-26T01:19:31.675Z,20.37
2017-03-26T01:20:41.947Z,20.17
2017-03-26T01:21:52.458Z,20.27
2017-03-26T01:23:02.445Z,20.17
2017-03-26T01:24:12.725Z,20.37
2017-03-26T01:25:22.699Z,20.37
2017-03-26T01:26:32.664Z,20.17
2017-03-26T01:27:42.887Z,20.47
2017-03-26T01:28:53.165Z,20.17
2017-03-26T01:30:03.464Z,20.17
2017-03-26T01:31:13.426Z,20.37
2017-03-26T01:32:23.710Z,20.17
2017-03-26T01:33:33.616Z,20.08
2017-03-26T01:34:43.884Z,20.17
2017-03-26T01:35:53.844Z,20.47
2017-03-26T01:37:03.488Z,20.65
2017-03-26T01:38:13.447Z,20.65
2017-03-26T01:39:23.709Z,20.56
2017-03-26T01:40:33.987Z,20.47
2017-03-26T01:41:43.953Z,20.56
2017-03-26T01:42:54.229Z,20.75
2017-03-26T01:44:04.715Z,20.56
2017-03-26T01:45:15.233Z,20.65
2017-03-26T01:46:25.505Z,20.56
2017-03-26T01:47:35.150Z,20.56
2017-03-26T01:48:45.118Z,20.65
2017-03-26T01:49:55.077Z,20.75
2017-03-26T01:51:05.298Z,20.75
2017-03-26T01:52:15.275Z,20.75
2017-03-26T01:53:25.233Z,20.65
2017-03-26T01:54:34.890Z,20.65
2017-03-26T01:55:44.538Z,20.56
2017-03-26T01:56:55.264Z,20.75
2017-03-26T01:58:05.539Z,20.65
2017-03-26T01:59:15.821Z,20.47
2017-03-26T02:00:25.781Z,20.47
2017-03-26T02:01:36.053Z,20.37
2017-03-26T02:02:46.572Z,20.56
2017-03-26T02:03:56.535Z,20.56
2017-03-26T02:05:06.816Z,20.56
2017-03-26T02:06:16.798Z,20.56
2017-03-26T02:07:26.766Z,20.56
2017-03-26T02:08:37.340Z,20.56
2017-03-26T02:09:47.624Z,20.47
2017-03-26T02:10:57.898Z,20.47
2017-03-26T02:12:08.173Z,20.75
2017-03-26T02:13:17.833Z,20.47
2017-03-26T02:14:28.098Z,20.37
2017-03-26T02:15:38.070Z,20.85
2017-03-26T02:16:48.029Z,20.94
2017-03-26T02:17:57.986Z,20.94
2017-03-26T02:19:08.264Z,20.75
2017-03-26T02:20:18.470Z,20.85
2017-03-26T02:21:28.735Z,20.75
2017-03-26T02:22:38.715Z,20.85
2017-03-26T02:23:48.370Z,20.85
2017-03-26T02:24:58.025Z,20.94
2017-03-26T02:26:08.546Z,20.85
2017-03-26T02:27:18.507Z,20.75
2017-03-26T02:28:28.785Z,20.85
2017-03-26T02:29:38.749Z,20.75
2017-03-26T02:30:49.027Z,20.94
2017-03-26T02:31:59.287Z,20.85
2017-03-26T02:33:09.258Z,21.04
2017-03-26T02:34:19.529Z,21.04
2017-03-26T02:35:29.805Z,20.94
2017-03-26T02:36:39.771Z,20.94
2017-03-26T02:37:50.290Z,21.04
2017-03-26T02:39:00.256Z,20.94
2017-03-26T02:40:10.225Z,20.94
2017-03-26T02:41:20.178Z,20.94
2017-03-26T02:42:30.139Z,20.94
2017-03-26T02:43:40.350Z,21.04
2017-03-26T02:44:49.687Z,21.04
2017-03-26T02:45:59.959Z,21.14
2017-03-26T02:47:09.923Z,21.14
2017-03-26T02:48:19.571Z,21.14
2017-03-26T02:49:30.102Z,21.04
2017-03-26T02:50:40.374Z,21.14
2017-03-26T02:51:50.326Z,21.14
2017-03-26T02:53:00.288Z,20.65
2017-03-26T02:54:10.564Z,21.23
2017-03-26T02:55:21.139Z,21.04
2017-03-26T02:56:31.097Z,20.94
2017-03-26T02:57:41.058Z,20.56
2017-03-26T02:58:51.021Z,20.65
2017-03-26T03:00:01.296Z,21.23
2017-03-26T03:01:11.500Z,20.94
2017-03-26T03:02:21.473Z,20.94
2017-03-26T03:03:31.753Z,20.65
2017-03-26T03:04:41.412Z,20.85
2017-03-26T03:05:51.678Z,20.85
2017-03-26T03:07:01.942Z,21.23
2017-03-26T03:08:11.895Z,21.14
2017-03-26T03:09:21.549Z,21.14
2017-03-26T03:10:31.830Z,20.94
2017-03-26T03:11:41.791Z,20.85
2017-03-26T03:12:52.363Z,20.94
2017-03-26T03:14:02.641Z,20.94
2017-03-26T03:15:12.912Z,20.94
2017-03-26T03:16:22.556Z,20.85
2017-03-26T03:17:32.822Z,20.85
2017-03-26T03:18:43.346Z,20.85
2017-03-26T03:19:53.624Z,20.85
2017-03-26T03:21:03.582Z,20.85
2017-03-26T03:22:13.544Z,21.14
2017-03-26T03:23:23.541Z,20.85
2017-03-26T03:24:34.064Z,21.14
2017-03-26T03:25:44.021Z,20.75
2017-03-26T03:26:53.978Z,20.75
2017-03-26T03:28:04.257Z,20.75
2017-03-26T03:29:14.528Z,20.85
2017-03-26T03:30:24.438Z,20.85
2017-03-26T03:31:34.123Z,20.85
2017-03-26T03:32:44.393Z,20.85
2017-03-26T03:33:54.349Z,20.85
2017-03-26T03:35:04.627Z,20.85
2017-03-26T03:36:14.887Z,20.65
2017-03-26T03:37:24.839Z,20.85
2017-03-26T03:38:34.807Z,20.94
2017-03-26T03:39:44.773Z,20.75
2017-03-26T03:40:55.044Z,20.75
2017-03-26T03:42:05.248Z,21.04
2017-03-26T03:43:15.219Z,20.75
2017-03-26T03:44:25.181Z,20.75
2017-03-26T03:45:35.463Z,20.85
2017-03-26T03:46:45.741Z,21.04
2017-03-26T03:47:56.262Z,20.85
2017-03-26T03:49:06.555Z,21.14
2017-03-26T03:50:16.824Z,20.94
2017-03-26T03:51:26.781Z,20.75
2017-03-26T03:52:36.749Z,20.85
2017-03-26T03:53:47.280Z,21.04
2017-03-26T03:54:57.561Z,20.75
2017-03-26T03:56:07.209Z,20.85
2017-03-26T03:57:17.533Z,20.84
2017-03-26T03:58:27.809Z,21.14
2017-03-26T03:59:38.335Z,21.42
2017-03-26T04:00:48.303Z,21.03
2017-03-26T04:01:58.261Z,21.04
2017-03-26T04:03:08.232Z,21.04
2017-03-26T04:04:18.509Z,21.33
2017-03-26T04:05:28.788Z,21.12
2017-03-26T04:06:39.056Z,21.32
2017-03-26T04:07:49.318Z,21.12
2017-03-26T04:08:59.590Z,21.22
2017-03-26T04:10:09.563Z,21.23
2017-03-26T04:11:19.198Z,21.32
2017-03-26T04:12:29.470Z,21.41
2017-03-26T04:13:39.434Z,21.23
2017-03-26T04:14:48.771Z,21.14
2017-03-26T04:15:58.730Z,21.23
2017-03-26T04:17:08.634Z,21.42
2017-03-26T04:18:18.905Z,21.23
2017-03-26T04:19:29.173Z,21.14
2017-03-26T04:20:39.137Z,21.23
2017-03-26T04:21:49.410Z,21.14
2017-03-26T04:22:59.632Z,21.22
2017-03-26T04:24:09.898Z,21.14
2017-03-26T04:25:20.174Z,21.14
2017-03-26T04:26:30.440Z,21.23
2017-03-26T04:27:40.713Z,21.14
2017-03-26T04:28:51.380Z,21.22
2017-03-26T04:30:01.657Z,21.22
2017-03-26T04:31:11.312Z,21.12
2017-03-26T04:32:21.579Z,21.22
2017-03-26T04:33:31.541Z,21.04
2017-03-26T04:34:41.767Z,21.12
2017-03-26T04:35:51.411Z,21.03
2017-03-26T04:37:01.072Z,21.12
2017-03-26T04:38:11.029Z,21.04
2017-03-26T04:39:21.002Z,20.75
2017-03-26T04:40:31.531Z,20.74
2017-03-26T04:41:41.799Z,20.84
2017-03-26T04:42:52.078Z,20.84
2017-03-26T04:44:02.038Z,21.03
2017-03-26T04:45:12.375Z,20.84
2017-03-26T04:46:22.598Z,20.74
2017-03-26T04:47:32.874Z,20.75
2017-03-26T04:48:43.150Z,20.74
2017-03-26T04:49:53.111Z,20.64
2017-03-26T04:51:03.384Z,20.64
2017-03-26T04:52:13.902Z,20.84
2017-03-26T04:53:24.186Z,20.74
2017-03-26T04:54:34.452Z,20.84
2017-03-26T04:55:44.101Z,21.12
2017-03-26T04:56:54.053Z,20.84
2017-03-26T04:58:04.569Z,20.94
2017-03-26T04:59:14.840Z,21.12
2017-03-26T05:00:24.491Z,21.12
2017-03-26T05:01:34.759Z,20.94
2017-03-26T05:02:44.716Z,21.12
2017-03-26T05:03:54.933Z,20.84
2017-03-26T05:05:04.890Z,20.84
2017-03-26T05:06:14.926Z,21.12
2017-03-26T05:07:24.880Z,20.84
2017-03-26T05:08:34.520Z,20.64
2017-03-26T05:09:44.782Z,21.03
2017-03-26T05:10:54.430Z,21.03
2017-03-26T05:12:03.809Z,21.22
2017-03-26T05:13:13.770Z,21.03
2017-03-26T05:14:24.044Z,21.03
2017-03-26T05:15:34.661Z,21.32
2017-03-26T05:16:44.623Z,20.55
2017-03-26T05:17:54.267Z,20.94
2017-03-26T05:19:04.543Z,20.94
2017-03-26T05:20:14.831Z,21.22
2017-03-26T05:21:25.037Z,20.55
2017-03-26T05:22:34.682Z,21.03
2017-03-26T05:23:44.961Z,21.12
2017-03-26T05:24:54.303Z,21.12
2017-03-26T05:26:03.957Z,20.74
2017-03-26T05:27:14.476Z,21.22
2017-03-26T05:28:24.756Z,21.12
2017-03-26T05:29:34.723Z,21.12
2017-03-26T05:30:44.993Z,21.04
2017-03-26T05:31:55.259Z,21.03
2017-03-26T05:33:05.775Z,21.12
2017-03-26T05:34:15.735Z,21.22
2017-03-26T05:35:26.011Z,21.12
2017-03-26T05:36:36.286Z,20.84
2017-03-26T05:37:46.558Z,20.94
2017-03-26T05:38:57.080Z,21.03
2017-03-26T05:40:07.056Z,20.94
2017-03-26T05:41:17.347Z,20.84
2017-03-26T05:42:27.329Z,20.85
2017-03-26T05:43:37.292Z,20.94
2017-03-26T05:44:47.824Z,20.94
2017-03-26T05:45:58.097Z,20.85
2017-03-26T05:47:08.365Z,20.84
2017-03-26T05:48:18.643Z,20.94
2017-03-26T05:49:28.289Z,20.85
2017-03-26T05:50:38.864Z,20.94
2017-03-26T05:51:48.823Z,20.85
2017-03-26T05:52:58.796Z,20.94
2017-03-26T05:54:09.074Z,20.85
2017-03-26T05:55:19.341Z,20.75
2017-03-26T05:56:29.552Z,20.56
2017-03-26T05:57:39.822Z,20.56
2017-03-26T05:58:50.098Z,20.37
2017-03-26T06:00:00.368Z,20.56
2017-03-26T06:01:10.325Z,20.75
2017-03-26T06:02:20.861Z,20.47
2017-03-26T06:03:31.143Z,20.56
2017-03-26T06:04:41.114Z,20.47
2017-03-26T06:05:51.085Z,20.56
2017-03-26T06:07:01.044Z,20.85
2017-03-26T06:08:11.608Z,20.75
2017-03-26T06:09:21.566Z,20.75
2017-03-26T06:10:32.047Z,20.75
2017-03-26T06:11:41.687Z,20.85
2017-03-26T06:12:51.340Z,20.65
2017-03-26T06:14:01.870Z,20.65
2017-03-26T06:15:12.153Z,20.75
2017-03-26T06:16:22.418Z,20.65
2017-03-26T06:17:32.700Z,20.56
2017-03-26T06:18:42.661Z,20.65
2017-03-26T06:19:52.899Z,20.56
2017-03-26T06:21:02.849Z,20.65
2017-03-26T06:22:13.125Z,20.65
2017-03-26T06:23:23.086Z,20.65
2017-03-26T06:24:33.068Z,20.65
2017-03-26T06:25:43.274Z,20.56
2017-03-26T06:26:53.545Z,20.56
2017-03-26T06:28:03.512Z,20.65
2017-03-26T06:29:13.794Z,20.65
2017-03-26T06:30:23.770Z,20.27
2017-03-26T06:31:33.980Z,20.56
2017-03-26T06:32:44.247Z,20.47
2017-03-26T06:33:54.208Z,20.17
2017-03-26T06:35:03.870Z,20.27
2017-03-26T06:36:13.837Z,20.56
2017-03-26T06:37:23.738Z,20.47
2017-03-26T06:38:33.386Z,20.56
2017-03-26T06:39:43.356Z,20.27
2017-03-26T06:40:53.319Z,20.37
2017-03-26T06:42:03.268Z,20.75
2017-03-26T06:43:12.853Z,20.17
2017-03-26T06:44:22.827Z,20.17
2017-03-26T06:45:33.110Z,20.27
2017-03-26T06:46:43.377Z,20.08
2017-03-26T06:47:53.331Z,20.56
2017-03-26T06:49:03.541Z,20.47
2017-03-26T06:50:13.510Z,20.37
2017-03-26T06:51:23.173Z,20.17
2017-03-26T06:52:33.134Z,20.17
2017-03-26T06:53:43.163Z,20.47
2017-03-26T06:54:53.417Z,20.08
2017-03-26T06:56:03.378Z,20.47
2017-03-26T06:57:13.640Z,20.65
2017-03-26T06:58:23.604Z,20.47
2017-03-26T06:59:33.568Z,20.17
2017-03-26T07:00:44.090Z,20.17
2017-03-26T07:01:54.361Z,20.27
2017-03-26T07:03:04.340Z,20.56
2017-03-26T07:04:14.621Z,20.75
2017-03-26T07:05:24.593Z,20.47
2017-03-26T07:06:34.811Z,20.65
2017-03-26T07:07:45.080Z,20.47
2017-03-26T07:08:55.047Z,20.47
2017-03-26T07:10:04.713Z,20.47
2017-03-26T07:11:14.984Z,20.76
2017-03-26T07:12:24.890Z,20.65
2017-03-26T07:13:35.224Z,20.47
2017-03-26T07:14:45.490Z,20.47
2017-03-26T07:15:55.762Z,20.67
2017-03-26T07:17:05.727Z,20.67
2017-03-26T07:18:15.935Z,20.67
2017-03-26T07:19:26.268Z,20.67
2017-03-26T07:20:36.543Z,20.57
2017-03-26T07:21:46.197Z,20.67
2017-03-26T07:22:56.165Z,20.67
2017-03-26T07:24:06.388Z,20.57
2017-03-26T07:25:16.666Z,20.65
2017-03-26T07:26:26.942Z,20.65
2017-03-26T07:27:36.593Z,20.65
2017-03-26T07:28:46.557Z,20.47
2017-03-26T07:29:57.095Z,20.76
2017-03-26T07:31:07.386Z,20.75
2017-03-26T07:32:17.661Z,20.76
2017-03-26T07:33:27.620Z,20.67
2017-03-26T07:34:37.897Z,20.57
2017-03-26T07:35:47.844Z,20.57
2017-03-26T07:36:58.116Z,20.67
2017-03-26T07:38:08.096Z,20.67
2017-03-26T07:39:18.055Z,20.57
2017-03-26T07:40:28.331Z,20.67
2017-03-26T07:41:38.861Z,20.67
2017-03-26T07:42:48.829Z,20.57
2017-03-26T07:43:58.798Z,20.76
2017-03-26T07:45:08.765Z,20.86
2017-03-26T07:46:18.715Z,20.57
2017-03-26T07:47:29.296Z,20.67
2017-03-26T07:48:39.257Z,20.67
2017-03-26T07:49:49.540Z,20.47
2017-03-26T07:50:59.830Z,20.67
2017-03-26T07:52:09.785Z,20.67
2017-03-26T07:53:20.044Z,20.86
2017-03-26T07:54:30.316Z,20.67
2017-03-26T07:55:40.306Z,20.57
2017-03-26T07:56:50.283Z,20.47
2017-03-26T07:57:59.932Z,20.47
2017-03-26T07:59:10.459Z,20.86
2017-03-26T08:00:20.423Z,20.57
2017-03-26T08:01:30.388Z,20.76
2017-03-26T08:02:40.340Z,20.86
2017-03-26T08:03:50.319Z,20.86
2017-03-26T08:05:00.860Z,20.86
2017-03-26T08:06:10.876Z,20.86
2017-03-26T08:07:21.152Z,20.47
2017-03-26T08:08:31.431Z,20.86
2017-03-26T08:09:41.701Z,20.86
2017-03-26T08:10:51.913Z,20.76
2017-03-26T08:12:02.189Z,21.05
2017-03-26T08:13:12.470Z,20.76
2017-03-26T08:14:22.426Z,20.86
2017-03-26T08:15:32.384Z,21.05
2017-03-26T08:16:42.917Z,20.95
2017-03-26T08:17:52.567Z,20.95
2017-03-26T08:19:02.837Z,20.67
2017-03-26T08:20:13.110Z,21.24
2017-03-26T08:21:23.084Z,21.24
2017-03-26T08:22:33.612Z,21.24
2017-03-26T08:23:43.891Z,21.15
2017-03-26T08:24:53.540Z,20.86
2017-03-26T08:26:03.505Z,21.24
2017-03-26T08:27:13.157Z,20.76
2017-03-26T08:28:23.370Z,21.15
2017-03-26T08:29:33.659Z,21.15
2017-03-26T08:30:43.942Z,20.95
2017-03-26T08:31:53.903Z,20.86
2017-03-26T08:33:04.190Z,20.95
2017-03-26T08:34:14.774Z,20.86
2017-03-26T08:35:24.110Z,20.76
2017-03-26T08:36:34.086Z,20.76
2017-03-26T08:37:44.056Z,21.15
2017-03-26T08:38:53.706Z,20.86
2017-03-26T08:40:04.245Z,20.86
2017-03-26T08:41:14.534Z,20.95
2017-03-26T08:42:24.258Z,20.95
2017-03-26T08:43:33.954Z,20.86
2017-03-26T08:44:44.239Z,20.86
2017-03-26T08:45:54.809Z,20.76
2017-03-26T08:47:04.478Z,20.86
2017-03-26T08:48:14.768Z,20.76
2017-03-26T08:49:24.736Z,20.95
2017-03-26T08:50:34.715Z,20.86
2017-03-26T08:51:44.937Z,20.67
2017-03-26T08:52:55.228Z,20.86
2017-03-26T08:54:05.522Z,20.86
2017-03-26T08:55:15.820Z,20.76
2017-03-26T08:56:25.770Z,20.86
2017-03-26T08:57:36.351Z,20.76
2017-03-26T08:58:46.326Z,20.86
2017-03-26T08:59:55.981Z,21.05
2017-03-26T09:01:06.272Z,20.76
2017-03-26T09:02:15.924Z,21.24
2017-03-26T09:03:26.183Z,20.86
2017-03-26T09:04:36.149Z,20.86
2017-03-26T09:05:46.435Z,20.86
2017-03-26T09:06:56.089Z,20.95
2017-03-26T09:08:06.370Z,20.76
2017-03-26T09:09:16.584Z,21.15
2017-03-26T09:10:26.870Z,20.86
2017-03-26T09:11:36.526Z,20.86
2017-03-26T09:12:46.483Z,20.95
2017-03-26T09:13:56.142Z,21.05
2017-03-26T09:15:06.102Z,20.87
2017-03-26T09:16:16.402Z,20.67
2017-03-26T09:17:26.056Z,21.24
2017-03-26T09:18:36.031Z,21.05
2017-03-26T09:19:46.316Z,21.15
2017-03-26T09:20:56.541Z,21.06
2017-03-26T09:22:06.514Z,21.15
2017-03-26T09:23:16.166Z,20.67
2017-03-26T09:24:26.450Z,21.15
2017-03-26T09:25:36.727Z,21.06
2017-03-26T09:26:46.629Z,20.95
2017-03-26T09:27:56.916Z,21.15
2017-03-26T09:29:07.211Z,20.57
2017-03-26T09:30:16.868Z,21.06
2017-03-26T09:31:27.139Z,20.77
2017-03-26T09:32:37.407Z,21.25
2017-03-26T09:33:47.696Z,21.25
2017-03-26T09:34:57.982Z,21.15
2017-03-26T09:36:08.257Z,21.15
2017-03-26T09:37:17.933Z,21.15
2017-03-26T09:38:28.159Z,20.97
2017-03-26T09:39:38.130Z,21.06
2017-03-26T09:40:48.406Z,20.67
2017-03-26T09:41:58.362Z,21.15
2017-03-26T09:43:08.341Z,21.15
2017-03-26T09:44:18.301Z,21.15
2017-03-26T09:45:28.584Z,20.97
2017-03-26T09:46:38.551Z,20.97
2017-03-26T09:47:48.843Z,21.06
2017-03-26T09:48:58.809Z,20.97
2017-03-26T09:50:09.361Z,20.87
2017-03-26T09:51:19.640Z,20.87
2017-03-26T09:52:29.930Z,20.77
2017-03-26T09:53:40.203Z,20.77
2017-03-26T09:54:50.186Z,20.77
2017-03-26T09:55:59.841Z,20.86
2017-03-26T09:57:10.120Z,20.95
2017-03-26T09:58:19.778Z,20.86
2017-03-26T09:59:30.046Z,20.87
2017-03-26T10:00:40.009Z,20.86
2017-03-26T10:01:50.549Z,20.86
2017-03-26T10:03:00.519Z,20.86
2017-03-26T10:04:10.792Z,20.86
2017-03-26T10:05:20.788Z,20.95
2017-03-26T10:06:30.766Z,20.76
2017-03-26T10:07:40.985Z,20.87
2017-03-26T10:08:51.285Z,20.86
2017-03-26T10:10:01.580Z,20.95
2017-03-26T10:11:11.531Z,20.95
2017-03-26T10:12:21.813Z,20.57
2017-03-26T10:13:32.028Z,20.77
2017-03-26T10:14:41.689Z,20.77
2017-03-26T10:15:51.710Z,20.48
2017-03-26T10:17:02.043Z,20.47
2017-03-26T10:18:12.038Z,20.86
2017-03-26T10:19:22.255Z,20.76
2017-03-26T10:20:32.222Z,20.58
2017-03-26T10:21:42.193Z,20.67
2017-03-26T10:22:51.845Z,20.77
2017-03-26T10:24:02.135Z,20.67
2017-03-26T10:25:12.370Z,20.67
2017-03-26T10:26:22.651Z,20.47
2017-03-26T10:27:32.307Z,20.29
2017-03-26T10:28:42.625Z,20.29
2017-03-26T10:29:52.905Z,20.2
2017-03-26T10:31:03.436Z,20.18
2017-03-26T10:32:13.721Z,20.67
2017-03-26T10:33:23.699Z,20.67
2017-03-26T10:34:33.357Z,20.09
2017-03-26T10:35:43.025Z,20.39
2017-03-26T10:36:53.601Z,20.2
2017-03-26T10:38:02.951Z,20.18
2017-03-26T10:39:13.230Z,20.28
2017-03-26T10:40:23.216Z,20.29
2017-03-26T10:41:32.246Z,20.28
2017-03-26T10:42:42.775Z,20.38
2017-03-26T10:43:52.744Z,20.28
2017-03-26T10:45:03.033Z,20.18
2017-03-26T10:46:12.988Z,20.28
2017-03-26T10:47:22.962Z,20.18
2017-03-26T10:48:33.239Z,20.2
2017-03-26T10:49:43.212Z,20.38
2017-03-26T10:50:53.176Z,20.38
2017-03-26T10:52:03.476Z,20.18
2017-03-26T10:53:13.774Z,20.38
2017-03-26T10:54:24.350Z,20.18
2017-03-26T10:55:33.699Z,20.39
2017-03-26T10:56:43.975Z,20.38
2017-03-26T10:57:54.266Z,20.39
2017-03-26T10:59:04.589Z,20.39
2017-03-26T11:00:14.811Z,20.38
2017-03-26T11:01:25.093Z,20.38
2017-03-26T11:02:35.076Z,20.38
2017-03-26T11:03:45.037Z,20.38
2017-03-26T11:04:55.324Z,20.39
2017-03-26T11:06:05.881Z,20.38
2017-03-26T11:07:16.176Z,20.39
2017-03-26T11:08:26.452Z,20.57
2017-03-26T11:09:36.433Z,20.57
2017-03-26T11:10:46.115Z,20.38
2017-03-26T11:11:56.018Z,20.18
2017-03-26T11:13:05.986Z,20.18
2017-03-26T11:14:16.267Z,20.28
2017-03-26T11:15:26.225Z,20.2
2017-03-26T11:16:36.188Z,20.09
2017-03-26T11:17:46.726Z,20.1
2017-03-26T11:18:57.009Z,20.2
2017-03-26T11:20:07.297Z,20
2017-03-26T11:21:17.292Z,20.1
2017-03-26T11:22:27.265Z,20.09
2017-03-26T11:23:37.167Z,20.2
2017-03-26T11:24:47.465Z,20.18
2017-03-26T11:25:57.446Z,20.18
2017-03-26T11:27:07.461Z,20
2017-03-26T11:28:17.427Z,20
2017-03-26T11:29:27.949Z,20.09
2017-03-26T11:30:37.607Z,20.18
2017-03-26T11:31:47.570Z,20
2017-03-26T11:32:57.238Z,19.8
2017-03-26T11:34:06.912Z,19.7
2017-03-26T11:35:17.152Z,20.09
2017-03-26T11:36:27.424Z,19.9
2017-03-26T11:37:37.401Z,19.8
2017-03-26T11:38:47.376Z,19.9
2017-03-26T11:39:57.356Z,19.7
2017-03-26T11:41:07.897Z,19.61
2017-03-26T11:42:17.861Z,19.61
2017-03-26T11:43:27.834Z,19.9
2017-03-26T11:44:37.811Z,19.8
2017-03-26T11:45:47.776Z,19.8
2017-03-26T11:46:58.313Z,19.9
2017-03-26T11:48:08.587Z,19.81
2017-03-26T11:49:18.579Z,19.61
2017-03-26T11:50:28.554Z,19.7
2017-03-26T11:51:38.845Z,19.61
2017-03-26T11:52:49.375Z,19.8
2017-03-26T11:53:59.651Z,19.9
2017-03-26T11:55:09.938Z,19.8
2017-03-26T11:56:20.220Z,19.7
2017-03-26T11:57:30.496Z,19.7
2017-03-26T11:58:41.030Z,19.8
2017-03-26T11:59:51.342Z,19.9
2017-03-26T12:01:01.626Z,19.61
2017-03-26T12:02:11.587Z,19.7
2017-03-26T12:03:21.558Z,19.61
2017-03-26T12:04:32.100Z,19.7
2017-03-26T12:05:42.067Z,19.7
2017-03-26T12:06:52.336Z,19.7
2017-03-26T12:08:02.610Z,19.7
2017-03-26T12:09:12.592Z,19.71
2017-03-26T12:10:22.809Z,19.9
2017-03-26T12:11:32.172Z,19.71
2017-03-26T12:12:42.136Z,19.61
2017-03-26T12:13:51.815Z,19.61
2017-03-26T12:15:01.808Z,19.42
2017-03-26T12:16:12.338Z,19.42
2017-03-26T12:17:22.643Z,19.32
2017-03-26T12:18:32.000Z,19.52
2017-03-26T12:19:42.288Z,19.43
2017-03-26T12:20:52.569Z,19.51
2017-03-26T12:22:03.094Z,19.23
2017-03-26T12:23:13.062Z,19.42
2017-03-26T12:24:23.367Z,19.52
2017-03-26T12:25:33.338Z,19.13
2017-03-26T12:26:43.616Z,19.42
2017-03-26T12:27:53.216Z,19.23
2017-03-26T12:29:03.181Z,19.13
2017-03-26T12:30:13.465Z,19.23
2017-03-26T12:31:23.750Z,19.13
2017-03-26T12:32:34.048Z,19.13
2017-03-26T12:33:44.331Z,18.95
2017-03-26T12:34:54.009Z,18.84
2017-03-26T12:36:04.306Z,19.13
2017-03-26T12:37:14.614Z,18.93
2017-03-26T12:38:24.895Z,18.93
2017-03-26T12:39:35.466Z,18.74
2017-03-26T12:40:45.129Z,18.65
2017-03-26T12:41:55.422Z,18.37
2017-03-26T12:43:05.396Z,18.65
2017-03-26T12:44:15.694Z,18.55
2017-03-26T12:45:25.978Z,18.46
2017-03-26T12:46:36.270Z,18.37
2017-03-26T12:47:46.558Z,17.88
2017-03-26T12:48:56.847Z,18.55
2017-03-26T12:50:07.138Z,18.37
2017-03-26T12:51:17.358Z,18.26
2017-03-26T12:52:27.064Z,17.97
2017-03-26T12:53:37.034Z,17.88
2017-03-26T12:54:47.317Z,18.07
2017-03-26T12:55:56.977Z,17.88
2017-03-26T12:57:07.805Z,17.78
2017-03-26T12:58:17.770Z,17.88
2017-03-26T12:59:28.049Z,17.97
2017-03-26T13:00:38.328Z,17.79
2017-03-26T13:01:48.292Z,17.69
2017-03-26T13:02:58.865Z,17.78
2017-03-26T13:04:09.139Z,17.69
2017-03-26T13:05:19.415Z,17.88
2017-03-26T13:06:29.779Z,17.78
2017-03-26T13:07:39.763Z,17.49
2017-03-26T13:08:50.043Z,17.69
2017-03-26T13:09:59.699Z,17.69
2017-03-26T13:11:09.983Z,17.69
2017-03-26T13:12:20.270Z,17.88
2017-03-26T13:13:30.251Z,17.79
2017-03-26T13:14:40.788Z,17.78
2017-03-26T13:15:50.189Z,17.6
2017-03-26T13:16:59.850Z,17.88
2017-03-26T13:18:09.513Z,17.78
2017-03-26T13:19:19.173Z,17.6
2017-03-26T13:20:29.762Z,17.59
2017-03-26T13:21:39.731Z,17.69
2017-03-26T13:22:49.763Z,17.4
2017-03-26T13:23:59.758Z,17.5
2017-03-26T13:25:09.734Z,17.11
2017-03-26T13:26:20.307Z,17.4
2017-03-26T13:27:30.581Z,17.11
2017-03-26T13:28:40.856Z,17.69
2017-03-26T13:29:51.142Z,17.59
2017-03-26T13:31:01.109Z,17.6
2017-03-26T13:32:11.681Z,17.49
2017-03-26T13:33:21.334Z,17.5
2017-03-26T13:34:31.633Z,17.4
2017-03-26T13:35:41.907Z,17.3
2017-03-26T13:36:52.189Z,17.21
2017-03-26T13:38:02.227Z,17.3
2017-03-26T13:39:12.201Z,17.69
2017-03-26T13:40:22.485Z,17.21
2017-03-26T13:41:32.458Z,17.4
2017-03-26T13:42:42.434Z,17.21
2017-03-26T13:43:52.964Z,17.31
2017-03-26T13:45:02.938Z,17.3
2017-03-26T13:46:13.222Z,17.41
2017-03-26T13:47:23.210Z,17.31
2017-03-26T13:48:33.705Z,17.3
2017-03-26T13:49:43.983Z,17.11
2017-03-26T13:50:54.272Z,17.02
2017-03-26T13:52:03.952Z,17.31
2017-03-26T13:53:14.237Z,17.21
2017-03-26T13:54:24.529Z,17.31
2017-03-26T13:55:35.060Z,17.21
2017-03-26T13:56:45.030Z,16.93
2017-03-26T13:57:55.321Z,16.93
2017-03-26T13:59:05.601Z,16.93
2017-03-26T14:00:15.887Z,16.93
2017-03-26T14:01:26.419Z,16.63
2017-03-26T14:02:36.419Z,16.93
2017-03-26T14:03:46.115Z,16.93
2017-03-26T14:04:56.421Z,16.73
2017-03-26T14:06:06.399Z,16.83
2017-03-26T14:07:16.351Z,16.73
2017-03-26T14:08:26.640Z,16.83
2017-03-26T14:09:49.055Z,17.02
2017-03-26T14:10:59.398Z,16.93
2017-03-26T14:12:09.385Z,17.02
2017-03-26T14:13:19.958Z,16.73
2017-03-26T14:14:29.942Z,17.11
2017-03-26T14:15:39.936Z,16.93
2017-03-26T14:16:50.225Z,17.02
2017-03-26T14:18:00.804Z,17.11
2017-03-26T14:19:10.780Z,16.82
2017-03-26T14:20:21.066Z,16.93
2017-03-26T14:21:31.342Z,16.92
2017-03-26T14:22:41.311Z,16.93
2017-03-26T14:23:51.538Z,17.02
2017-03-26T14:25:01.814Z,16.73
2017-03-26T14:26:12.094Z,16.93
2017-03-26T14:27:22.061Z,16.93
2017-03-26T14:28:31.719Z,16.93
2017-03-26T14:29:41.675Z,16.83
2017-03-26T14:30:51.659Z,16.73
2017-03-26T14:32:01.977Z,16.83
2017-03-26T14:33:11.642Z,16.73
2017-03-26T14:34:21.919Z,16.63
2017-03-26T14:35:32.500Z,16.64
2017-03-26T14:36:42.162Z,16.83
2017-03-26T14:37:52.123Z,16.64
2017-03-26T14:39:01.784Z,16.44
2017-03-26T14:40:11.786Z,16.64
2017-03-26T14:41:22.005Z,16.54
2017-03-26T14:42:31.653Z,16.54
2017-03-26T14:43:41.933Z,16.35
2017-03-26T14:44:52.224Z,16.54
2017-03-26T14:46:02.511Z,16.54
2017-03-26T14:47:12.468Z,16.54
2017-03-26T14:48:22.144Z,16.64
2017-03-26T14:49:32.428Z,16.44
2017-03-26T14:50:42.718Z,16.64
2017-03-26T14:51:52.998Z,16.73
2017-03-26T14:53:03.540Z,16.64
2017-03-26T14:54:13.517Z,16.63
2017-03-26T14:55:23.491Z,16.64
2017-03-26T14:56:33.163Z,16.54
2017-03-26T14:57:43.457Z,16.64
2017-03-26T14:58:54.018Z,16.35
2017-03-26T15:00:04.334Z,16.64
2017-03-26T15:01:14.672Z,16.64
2017-03-26T15:02:24.648Z,16.54
2017-03-26T15:03:34.632Z,16.35
2017-03-26T15:04:45.177Z,16.54